createdAt,value
2017-09-23T00:02:02.953Z,8.30
2017-09-23T00:04:30.400Z,8.40
2017-09-23T00:06:57.877Z,5.53
2017-09-23T00:09:25.336Z,5.50
2017-09-23T00:11:52.150Z,5.10
2017-09-23T00:14:19.661Z,9.63
2017-09-23T00:16:47.121Z,7.47
2017-09-23T00:19:14.593Z,6.97
2017-09-23T00:21:42.053Z,6.13
2017-09-23T00:24:09.902Z,7.10
2017-09-23T00:26:37.362Z,6.00
2017-09-23T00:29:04.835Z,8.00
2017-09-23T00:31:32.298Z,7.30
2017-09-23T00:33:59.750Z,8.67
2017-09-23T00:36:27.441Z,8.33
2017-09-23T00:38:54.899Z,5.80
2017-09-23T00:41:22.718Z,7.23
2017-09-23T00:43:50.181Z,6.80
2017-09-23T00:46:17.630Z,8.57
2017-09-23T00:48:45.120Z,9.03
2017-09-23T00:51:12.579Z,7.87
2017-09-23T00:53:40.055Z,11.43
2017-09-23T00:56:07.512Z,8.87
2017-09-23T00:58:34.988Z,10.63
2017-09-23T01:01:02.447Z,7.57
2017-09-23T01:03:30.234Z,13.03
2017-09-23T01:05:57.699Z,11.70
2017-09-23T01:08:25.157Z,13.10
2017-09-23T01:10:52.637Z,11.73
2017-09-23T01:13:20.094Z,12.07
2017-09-23T01:15:47.572Z,12.00
2017-09-23T01:18:15.035Z,14.63
2017-09-23T01:20:42.523Z,11.97
2017-09-23T01:23:09.979Z,18.33
2017-09-23T01:25:37.589Z,13.03
2017-09-23T01:28:05.120Z,12.47
2017-09-23T01:30:34.079Z,18.47
2017-09-23T01:33:01.546Z,13.90
2017-09-23T01:35:29.005Z,15.33
2017-09-23T01:37:56.479Z,19.40
2017-09-23T01:40:23.937Z,19.10
2017-09-23T01:42:51.417Z,16.07
2017-09-23T01:45:18.885Z,13.40
2017-09-23T01:47:46.363Z,16.33
2017-09-23T01:50:13.857Z,18.10
2017-09-23T01:52:41.316Z,20.73
2017-09-23T01:55:08.792Z,16.17
2017-09-23T01:57:36.593Z,18.10
2017-09-23T02:00:04.101Z,23.43
2017-09-23T02:02:31.574Z,12.70
2017-09-23T02:04:59.320Z,14.27
2017-09-23T02:07:26.784Z,17.40
2017-09-23T02:09:54.247Z,14.30
2017-09-23T02:12:21.735Z,19.13
2017-09-23T02:14:49.190Z,16.70
2017-09-23T02:17:16.715Z,14.10
2017-09-23T02:19:44.179Z,11.70
2017-09-23T02:22:12.032Z,8.77
2017-09-23T02:24:39.488Z,9.97
2017-09-23T02:27:06.971Z,17.83
2017-09-23T02:29:34.460Z,19.20
2017-09-23T02:32:01.922Z,19.23
2017-09-23T02:34:29.731Z,12.00
2017-09-23T02:36:57.200Z,16.07
2017-09-23T02:39:24.654Z,18.07
2017-09-23T02:41:52.130Z,14.07
2017-09-23T02:44:19.578Z,9.80
2017-09-23T02:46:47.057Z,12.20
2017-09-23T02:49:14.516Z,8.67
2017-09-23T02:51:41.981Z,8.13
2017-09-23T02:54:09.449Z,13.00
2017-09-23T02:56:36.911Z,8.30
2017-09-23T02:59:04.422Z,7.47
2017-09-23T03:01:31.902Z,22.23
2017-09-23T03:03:59.368Z,21.67
2017-09-23T03:06:27.186Z,19.87
2017-09-23T03:08:54.660Z,17.50
2017-09-23T03:11:22.125Z,18.40
2017-09-23T03:13:49.602Z,18.40
2017-09-23T03:16:17.076Z,21.17
2017-09-23T03:18:44.547Z,23.90
2017-09-23T03:21:12.010Z,30.20
2017-09-23T03:23:39.794Z,20.27
2017-09-23T03:26:07.251Z,24.97
2017-09-23T03:28:34.726Z,26.10
2017-09-23T03:31:02.212Z,27.23
2017-09-23T03:33:29.679Z,27.07
2017-09-23T03:35:57.167Z,22.00
2017-09-23T03:38:24.626Z,26.80
2017-09-23T03:40:52.099Z,27.60
2017-09-23T03:43:19.559Z,28.73
2017-09-23T03:45:47.083Z,26.30
2017-09-23T03:48:14.542Z,25.17
2017-09-23T03:50:42.036Z,30.03
2017-09-23T03:53:09.506Z,26.43
2017-09-23T03:55:36.995Z,28.13
2017-09-23T03:58:04.465Z,29.50
2017-09-23T04:00:32.276Z,28.90
2017-09-23T04:02:59.744Z,32.50
2017-09-23T04:05:27.222Z,26.27
2017-09-23T04:07:54.699Z,29.97
2017-09-23T04:10:22.168Z,33.17
2017-09-23T04:12:49.641Z,29.50
2017-09-23T04:15:17.102Z,28.97
2017-09-23T04:17:44.876Z,35.40
2017-09-23T04:20:12.344Z,33.87
2017-09-23T04:22:39.820Z,38.53
2017-09-23T04:25:07.298Z,41.77
2017-09-23T04:27:34.762Z,38.40
2017-09-23T04:30:02.571Z,36.07
2017-09-23T04:32:30.033Z,35.67
2017-09-23T04:34:57.500Z,36.43
2017-09-23T04:37:24.968Z,41.47
2017-09-23T04:39:52.439Z,49.10
2017-09-23T04:42:20.280Z,43.50
2017-09-23T04:44:47.756Z,41.33
2017-09-23T04:47:15.220Z,41.87
2017-09-23T04:49:42.700Z,44.13
2017-09-23T04:52:10.173Z,43.60
2017-09-23T04:54:37.652Z,35.17
2017-09-23T04:57:05.123Z,48.10
2017-09-23T04:59:32.872Z,42.20
2017-09-23T05:02:00.342Z,36.57
2017-09-23T05:04:27.812Z,41.90
2017-09-23T05:06:55.296Z,42.47
2017-09-23T05:09:22.773Z,43.20
2017-09-23T05:11:50.572Z,50.93
2017-09-23T05:14:18.040Z,39.03
2017-09-23T05:16:45.593Z,42.63
2017-09-23T05:19:13.106Z,36.20
2017-09-23T05:21:40.570Z,38.23
2017-09-23T05:24:08.049Z,42.50
2017-09-23T05:26:35.513Z,44.00
2017-09-23T05:29:02.995Z,50.27
2017-09-23T05:31:30.459Z,46.83
2017-09-23T05:33:57.959Z,43.53
2017-09-23T05:36:25.457Z,42.33
2017-09-23T05:38:52.964Z,45.93
2017-09-23T05:41:21.157Z,40.23
2017-09-23T05:43:48.635Z,35.17
2017-09-23T05:46:16.107Z,39.43
2017-09-23T05:48:43.578Z,59.47
2017-09-23T05:51:11.054Z,41.20
2017-09-23T05:53:38.812Z,50.23
2017-09-23T05:56:06.299Z,44.90
2017-09-23T05:58:33.767Z,48.13
2017-09-23T06:01:01.251Z,44.60
2017-09-23T06:03:28.715Z,57.23
2017-09-23T06:05:56.181Z,46.90
2017-09-23T06:08:23.715Z,39.50
2017-09-23T06:10:51.250Z,38.00
2017-09-23T06:13:18.711Z,43.80
2017-09-23T06:15:46.517Z,44.93
2017-09-23T06:18:13.999Z,41.67
2017-09-23T06:20:41.493Z,41.13
2017-09-23T06:23:08.970Z,43.87
2017-09-23T06:25:36.429Z,39.70
2017-09-23T06:28:03.924Z,39.50
2017-09-23T06:30:31.389Z,35.50
2017-09-23T06:32:59.225Z,41.43
2017-09-23T06:35:26.698Z,45.47
2017-09-23T06:37:54.177Z,38.70
2017-09-23T06:40:21.656Z,49.87
2017-09-23T06:42:49.126Z,38.43
2017-09-23T06:45:16.897Z,44.33
2017-09-23T06:47:44.397Z,37.53
2017-09-23T06:50:11.883Z,43.93
2017-09-23T06:52:39.366Z,48.57
2017-09-23T06:55:06.833Z,43.20
2017-09-23T06:57:34.601Z,43.30
2017-09-23T07:00:02.072Z,48.17
2017-09-23T07:02:29.625Z,54.03
2017-09-23T07:04:57.154Z,62.07
2017-09-23T07:07:24.643Z,54.60
2017-09-23T07:09:52.133Z,55.23
2017-09-23T07:12:19.605Z,56.93
2017-09-23T07:14:47.419Z,54.50
2017-09-23T07:17:14.897Z,53.60
2017-09-23T07:19:42.374Z,46.80
2017-09-23T07:22:09.852Z,59.63
2017-09-23T07:24:37.331Z,49.77
2017-09-23T07:27:04.815Z,56.67
2017-09-23T07:29:32.299Z,49.73
2017-09-23T07:32:00.130Z,58.90
2017-09-23T07:34:27.630Z,50.80
2017-09-23T07:36:55.113Z,39.10
2017-09-23T07:39:22.611Z,54.57
2017-09-23T07:41:50.075Z,30.87
2017-09-23T07:44:17.552Z,47.53
2017-09-23T07:46:45.014Z,46.93
2017-09-23T07:49:12.839Z,48.53
2017-09-23T07:51:40.321Z,26.20
2017-09-23T07:54:07.789Z,32.20
2017-09-23T07:56:35.271Z,48.13
2017-09-23T07:59:02.745Z,22.07
2017-09-23T08:01:30.220Z,50.63
2017-09-23T08:03:57.685Z,36.40
2017-09-23T08:06:25.246Z,43.40
2017-09-23T08:08:52.742Z,46.43
2017-09-23T08:11:20.226Z,41.30
2017-09-23T08:13:47.690Z,47.30
2017-09-23T08:16:15.166Z,23.83
2017-09-23T08:18:42.655Z,19.20
2017-09-23T08:21:10.133Z,33.60
2017-09-23T08:23:37.597Z,30.27
2017-09-23T08:26:05.414Z,18.07
2017-09-23T08:28:32.880Z,14.90
2017-09-23T08:31:00.351Z,28.30
2017-09-23T08:33:27.830Z,30.57
2017-09-23T08:35:55.298Z,38.77
2017-09-23T08:38:22.766Z,25.67
2017-09-23T08:40:50.231Z,33.80
2017-09-23T08:43:18.031Z,47.87
2017-09-23T08:45:45.494Z,47.20
2017-09-23T08:48:12.962Z,32.90
2017-09-23T08:50:40.443Z,34.83
2017-09-23T08:53:07.917Z,34.77
2017-09-23T08:55:35.413Z,34.50
2017-09-23T08:58:02.875Z,17.37
2017-09-23T09:00:30.366Z,41.67
2017-09-23T09:02:57.840Z,28.23
2017-09-23T09:05:25.595Z,36.47
2017-09-23T09:07:53.071Z,25.10
2017-09-23T09:10:20.546Z,27.17
2017-09-23T09:12:48.047Z,27.13
2017-09-23T09:15:15.518Z,31.63
2017-09-23T09:17:42.991Z,36.23
2017-09-23T09:20:10.443Z,43.30
2017-09-23T09:22:37.941Z,40.40
2017-09-23T09:25:05.412Z,35.50
2017-09-23T09:27:33.262Z,23.37
2017-09-23T09:30:00.727Z,39.03
2017-09-23T09:32:28.194Z,39.00
2017-09-23T09:34:55.660Z,37.83
2017-09-23T09:37:23.142Z,19.63
2017-09-23T09:39:50.990Z,25.77
2017-09-23T09:42:18.452Z,41.10
2017-09-23T09:44:45.929Z,41.13
2017-09-23T09:47:13.427Z,41.83
2017-09-23T09:49:40.902Z,29.87
2017-09-23T09:52:08.644Z,21.13
2017-09-23T09:54:36.112Z,18.40
2017-09-23T09:57:03.587Z,21.90
2017-09-23T09:59:31.059Z,44.33
2017-09-23T10:01:58.542Z,41.50
2017-09-23T10:04:26.027Z,44.70
2017-09-23T10:06:53.511Z,22.33
2017-09-23T10:09:20.986Z,21.63
2017-09-23T10:11:48.473Z,19.37
2017-09-23T10:14:15.943Z,20.03
2017-09-23T10:16:43.743Z,22.70
2017-09-23T10:19:11.230Z,27.70
2017-09-23T10:21:38.700Z,41.20
2017-09-23T10:24:06.203Z,29.23
2017-09-23T10:26:33.673Z,33.00
2017-09-23T10:29:01.171Z,29.90
2017-09-23T10:31:28.670Z,21.93
2017-09-23T10:33:56.134Z,22.97
2017-09-23T10:36:23.631Z,16.60
2017-09-23T10:38:51.102Z,18.37
2017-09-23T10:41:18.596Z,27.17
2017-09-23T10:43:46.067Z,20.90
2017-09-23T10:46:13.558Z,20.37
2017-09-23T10:48:41.044Z,30.60
2017-09-23T10:51:08.515Z,19.57
2017-09-23T10:53:36.007Z,19.63
2017-09-23T10:56:03.478Z,28.47
2017-09-23T10:58:30.958Z,19.70
2017-09-23T11:00:58.438Z,15.03
2017-09-23T11:03:26.264Z,11.50
2017-09-23T11:05:53.740Z,9.83
2017-09-23T11:08:21.219Z,11.30
2017-09-23T11:10:48.702Z,11.47
2017-09-23T11:13:16.190Z,18.63
2017-09-23T11:15:44.060Z,13.40
2017-09-23T11:18:11.541Z,27.13
2017-09-23T11:20:39.019Z,15.30
2017-09-23T11:23:06.492Z,18.30
2017-09-23T11:25:33.978Z,14.67
2017-09-23T11:28:01.469Z,9.13
2017-09-23T11:30:28.942Z,10.07
2017-09-23T11:32:56.765Z,9.17
2017-09-23T11:35:24.228Z,8.73
2017-09-23T11:37:51.700Z,10.50
2017-09-23T11:40:19.199Z,10.20
2017-09-23T11:42:46.666Z,13.97
2017-09-23T11:45:14.168Z,10.73
2017-09-23T11:47:41.626Z,11.80
2017-09-23T11:50:09.184Z,13.73
2017-09-23T11:52:36.645Z,23.30
2017-09-23T11:55:04.141Z,21.07
2017-09-23T11:57:31.617Z,18.33
2017-09-23T11:59:59.119Z,9.87
2017-09-23T12:02:26.602Z,15.37
2017-09-23T12:04:54.100Z,19.80
2017-09-23T12:07:21.586Z,19.00
2017-09-23T12:09:49.085Z,17.40
2017-09-23T12:12:16.557Z,12.50
2017-09-23T12:14:44.302Z,18.67
2017-09-23T12:17:11.782Z,14.90
2017-09-23T12:19:39.268Z,21.07
2017-09-23T12:22:06.757Z,13.00
2017-09-23T12:24:34.240Z,22.93
2017-09-23T12:27:01.731Z,13.07
2017-09-23T12:29:29.201Z,18.20
2017-09-23T12:31:56.678Z,9.10
2017-09-23T12:34:24.152Z,14.07
2017-09-23T12:36:51.975Z,10.80
2017-09-23T12:39:19.455Z,8.70
2017-09-23T12:41:46.910Z,9.80
2017-09-23T12:44:14.399Z,9.90
2017-09-23T12:46:41.876Z,16.47
2017-09-23T12:49:09.685Z,22.50
2017-09-23T12:51:37.170Z,26.43
2017-09-23T12:54:04.694Z,23.70
2017-09-23T12:56:32.186Z,15.07
2017-09-23T12:58:59.659Z,24.13
2017-09-23T13:01:27.143Z,11.90
2017-09-23T13:03:54.617Z,18.63
2017-09-23T13:06:22.480Z,10.03
2017-09-23T13:08:49.972Z,8.87
2017-09-23T13:11:17.448Z,8.30
2017-09-23T13:13:44.932Z,10.77
2017-09-23T13:16:12.396Z,10.50
2017-09-23T13:18:39.872Z,10.00
2017-09-23T13:21:07.366Z,10.47
2017-09-23T13:23:34.843Z,6.67
2017-09-23T13:26:02.327Z,8.17
2017-09-23T13:28:29.829Z,6.33
2017-09-23T13:30:57.316Z,12.67
2017-09-23T13:33:24.779Z,10.43
2017-09-23T13:35:52.240Z,13.10
2017-09-23T13:38:20.079Z,11.50
2017-09-23T13:40:47.542Z,6.73
2017-09-23T13:43:15.006Z,6.10
2017-09-23T13:45:42.557Z,10.20
2017-09-23T13:48:10.019Z,11.90
2017-09-23T13:50:37.831Z,13.00
2017-09-23T13:53:05.293Z,10.60
2017-09-23T13:55:32.766Z,11.00
2017-09-23T13:58:00.246Z,7.93
2017-09-23T14:00:27.714Z,6.83
2017-09-23T14:02:55.232Z,7.57
2017-09-23T14:05:22.703Z,7.00
2017-09-23T14:07:50.209Z,17.83
2017-09-23T14:10:17.721Z,10.70
2017-09-23T14:12:45.571Z,9.47
2017-09-23T14:15:13.042Z,15.10
2017-09-23T14:17:40.513Z,9.93
2017-09-23T14:20:07.988Z,13.50
2017-09-23T14:22:35.495Z,10.73
2017-09-23T14:25:02.993Z,12.63
2017-09-23T14:27:30.491Z,8.03
2017-09-23T14:29:57.977Z,7.47
2017-09-23T14:32:25.460Z,12.27
2017-09-23T14:34:53.299Z,9.60
2017-09-23T14:37:20.756Z,8.60
2017-09-23T14:39:48.244Z,10.50
2017-09-23T14:42:15.721Z,5.83
2017-09-23T14:44:43.223Z,8.97
2017-09-23T14:47:10.691Z,10.23
2017-09-23T14:49:38.156Z,9.83
2017-09-23T14:52:05.654Z,10.27
2017-09-23T14:54:33.121Z,6.30
2017-09-23T14:57:00.584Z,6.43
2017-09-23T14:59:28.057Z,7.90
2017-09-23T15:01:55.836Z,13.83
2017-09-23T15:04:23.294Z,5.23
2017-09-23T15:06:50.765Z,10.10
2017-09-23T15:09:18.261Z,11.60
2017-09-23T15:11:45.723Z,9.90
2017-09-23T15:14:13.201Z,16.50
2017-09-23T15:16:40.661Z,9.40
2017-09-23T15:19:08.133Z,9.67
2017-09-23T15:21:35.610Z,10.20
2017-09-23T15:24:03.081Z,6.67
2017-09-23T15:26:30.552Z,7.63
2017-09-23T15:28:58.014Z,9.17
2017-09-23T15:31:25.500Z,18.03
2017-09-23T15:33:53.063Z,18.70
2017-09-23T15:36:20.544Z,11.70
2017-09-23T15:38:48.014Z,11.20
2017-09-23T15:41:15.498Z,14.43
2017-09-23T15:43:42.966Z,15.87
2017-09-23T15:46:10.759Z,13.23
2017-09-23T15:48:38.252Z,11.93
2017-09-23T15:51:05.719Z,10.20
2017-09-23T15:53:33.203Z,7.53
2017-09-23T15:56:00.659Z,14.47
2017-09-23T15:58:28.135Z,15.57
2017-09-23T16:00:55.634Z,33.00
2017-09-23T16:03:23.382Z,13.60
2017-09-23T16:05:50.869Z,15.13
2017-09-23T16:08:18.348Z,14.20
2017-09-23T16:10:45.823Z,11.90
2017-09-23T16:13:13.298Z,10.87
2017-09-23T16:15:40.795Z,9.43
2017-09-23T16:18:08.267Z,16.77
2017-09-23T16:20:35.735Z,15.70
2017-09-23T16:23:03.207Z,79.07
2017-09-23T16:25:31.007Z,111.83
2017-09-23T16:27:58.472Z,14.17
2017-09-23T16:30:25.948Z,14.00
2017-09-23T16:32:53.459Z,13.67
2017-09-23T16:35:20.930Z,20.67
2017-09-23T16:37:48.427Z,14.30
2017-09-23T16:40:15.897Z,11.40
2017-09-23T16:42:43.375Z,8.33
2017-09-23T16:45:10.842Z,14.57
2017-09-23T16:47:38.575Z,8.90
2017-09-23T16:50:06.053Z,12.03
2017-09-23T16:52:33.540Z,16.53
2017-09-23T16:55:01.096Z,19.80
2017-09-23T16:57:28.570Z,23.40
2017-09-23T16:59:56.094Z,15.80
2017-09-23T17:02:23.592Z,13.17
2017-09-23T17:04:51.469Z,19.43
2017-09-23T17:07:18.958Z,31.67
2017-09-23T17:09:46.459Z,14.93
2017-09-23T17:12:14.011Z,17.03
2017-09-23T17:14:41.498Z,20.80
2017-09-23T17:17:08.999Z,20.40
2017-09-23T17:19:36.479Z,20.90
2017-09-23T17:22:04.266Z,21.57
2017-09-23T17:24:31.756Z,20.70
2017-09-23T17:26:59.253Z,24.23
2017-09-23T17:29:26.743Z,20.63
2017-09-23T17:31:54.214Z,13.63
2017-09-23T17:34:22.076Z,14.50
2017-09-23T17:36:49.549Z,20.40
2017-09-23T17:39:17.033Z,14.33
2017-09-23T17:41:44.508Z,17.47
2017-09-23T17:44:11.974Z,23.33
2017-09-23T17:46:39.477Z,32.07
2017-09-23T17:49:06.964Z,18.20
2017-09-23T17:51:34.776Z,16.27
2017-09-23T17:54:02.257Z,13.57
2017-09-23T17:56:29.730Z,11.60
2017-09-23T17:58:57.651Z,18.87
2017-09-23T18:01:25.148Z,27.33
2017-09-23T18:03:52.999Z,15.50
2017-09-23T18:06:20.476Z,17.27
2017-09-23T18:08:47.947Z,17.30
2017-09-23T18:11:15.446Z,13.60
2017-09-23T18:13:42.914Z,10.90
2017-09-23T18:16:10.387Z,13.40
2017-09-23T18:18:37.926Z,16.03
2017-09-23T18:21:05.689Z,14.63
2017-09-23T18:23:33.189Z,15.23
2017-09-23T18:26:00.670Z,28.37
2017-09-23T18:28:28.167Z,19.87
2017-09-23T18:30:55.641Z,14.07
2017-09-23T18:33:23.137Z,28.10
2017-09-23T18:35:50.598Z,23.67
2017-09-23T18:38:18.411Z,32.43
2017-09-23T18:40:45.890Z,30.20
2017-09-23T18:43:13.381Z,24.57
2017-09-23T18:45:40.855Z,27.03
2017-09-23T18:48:08.336Z,26.50
2017-09-23T18:50:35.819Z,23.60
2017-09-23T18:53:03.302Z,20.00
2017-09-23T18:55:30.786Z,12.93
2017-09-23T18:57:58.267Z,19.80
2017-09-23T19:00:25.762Z,25.10
2017-09-23T19:02:53.232Z,19.70
2017-09-23T19:05:20.712Z,19.97
2017-09-23T19:07:48.372Z,20.07
2017-09-23T19:10:16.187Z,31.70
2017-09-23T19:12:43.655Z,24.50
2017-09-23T19:15:11.144Z,28.13
2017-09-23T19:17:38.635Z,21.93
2017-09-23T19:20:06.122Z,19.73
2017-09-23T19:22:33.610Z,39.37
2017-09-23T19:25:01.095Z,25.50
2017-09-23T19:27:28.605Z,22.87
2017-09-23T19:29:56.087Z,24.60
2017-09-23T19:32:23.893Z,20.73
2017-09-23T19:34:51.367Z,21.70
2017-09-23T19:37:18.836Z,18.50
2017-09-23T19:39:46.307Z,15.70
2017-09-23T19:42:13.768Z,19.03
2017-09-23T19:44:41.256Z,14.57
2017-09-23T19:47:08.723Z,16.10
2017-09-23T19:49:36.543Z,17.97
2017-09-23T19:52:04.020Z,21.03
2017-09-23T19:54:31.481Z,23.17
2017-09-23T19:56:58.969Z,25.00
2017-09-23T19:59:26.432Z,23.90
2017-09-23T20:01:53.946Z,22.30
2017-09-23T20:04:21.427Z,20.57
2017-09-23T20:06:48.900Z,21.80
2017-09-23T20:09:16.368Z,23.27
2017-09-23T20:11:43.825Z,19.13
2017-09-23T20:14:11.298Z,26.70
2017-09-23T20:16:38.750Z,27.10
2017-09-23T20:19:06.478Z,22.30
2017-09-23T20:21:33.951Z,22.23
2017-09-23T20:24:01.424Z,20.87
2017-09-23T20:26:28.908Z,15.40
2017-09-23T20:28:56.370Z,17.33
2017-09-23T20:31:23.853Z,23.90
2017-09-23T20:33:51.323Z,24.80
2017-09-23T20:36:19.091Z,25.10
2017-09-23T20:38:46.546Z,22.47
2017-09-23T20:41:14.033Z,24.60
2017-09-23T20:43:41.542Z,20.57
2017-09-23T20:46:09.011Z,16.10
2017-09-23T20:48:36.495Z,16.50
2017-09-23T20:51:03.977Z,14.23
2017-09-23T20:53:31.462Z,15.67
2017-09-23T20:55:58.946Z,21.40
2017-09-23T20:58:26.436Z,14.20
2017-09-23T21:00:53.989Z,15.00
2017-09-23T21:03:21.852Z,18.63
2017-09-23T21:05:49.330Z,19.13
2017-09-23T21:08:16.807Z,18.30
2017-09-23T21:10:44.290Z,44.33
2017-09-23T21:13:11.774Z,30.27
2017-09-23T21:15:39.246Z,22.93
2017-09-23T21:18:06.732Z,19.60
2017-09-23T21:20:34.222Z,17.17
2017-09-23T21:23:01.694Z,17.20
2017-09-23T21:25:29.483Z,17.03
2017-09-23T21:27:56.964Z,16.03
2017-09-23T21:30:24.435Z,20.10
2017-09-23T21:32:51.924Z,14.50
2017-09-23T21:35:19.385Z,26.50
2017-09-23T21:37:46.918Z,18.53
2017-09-23T21:40:14.387Z,20.50
2017-09-23T21:42:41.865Z,21.70
2017-09-23T21:45:09.340Z,21.33
2017-09-23T21:47:36.821Z,24.50
2017-09-23T21:50:04.298Z,24.33
2017-09-23T21:52:31.853Z,18.70
2017-09-23T21:54:59.370Z,19.17
2017-09-23T21:57:27.131Z,16.30
2017-09-23T21:59:54.680Z,16.97
2017-09-23T22:02:22.134Z,14.67
2017-09-23T22:04:49.653Z,22.37
2017-09-23T22:07:17.146Z,16.80
2017-09-23T22:09:44.622Z,19.17
2017-09-23T22:12:12.086Z,19.30
2017-09-23T22:14:39.567Z,28.23
2017-09-23T22:17:07.039Z,23.70
2017-09-23T22:19:34.902Z,24.40
2017-09-23T22:22:02.380Z,27.60
2017-09-23T22:24:29.855Z,25.87
2017-09-23T22:26:57.352Z,19.73
2017-09-23T22:29:24.815Z,29.00
2017-09-23T22:31:52.311Z,19.57
2017-09-23T22:34:19.783Z,24.57
2017-09-23T22:36:47.589Z,24.33
2017-09-23T22:39:15.083Z,26.93
2017-09-23T22:41:42.549Z,26.93
2017-09-23T22:44:10.035Z,21.07
2017-09-23T22:46:37.498Z,16.97
2017-09-23T22:49:04.979Z,12.77
2017-09-23T22:51:32.442Z,23.30
2017-09-23T22:54:00.211Z,25.77
2017-09-23T22:56:27.715Z,24.27
2017-09-23T22:58:55.184Z,21.90
2017-09-23T23:01:22.661Z,23.23
2017-09-23T23:03:50.140Z,24.73
2017-09-23T23:06:17.618Z,24.20
2017-09-23T23:08:45.079Z,20.97
2017-09-23T23:11:12.558Z,26.23
2017-09-23T23:13:40.024Z,22.57
2017-09-23T23:16:07.494Z,36.23
2017-09-23T23:18:34.957Z,19.97
2017-09-23T23:21:02.439Z,28.20
2017-09-23T23:23:29.903Z,20.77
2017-09-23T23:25:57.645Z,25.00
2017-09-23T23:28:25.114Z,24.40
2017-09-23T23:30:52.580Z,21.93
2017-09-23T23:33:20.063Z,22.40
2017-09-23T23:35:47.531Z,27.30
2017-09-23T23:38:15.004Z,22.30
2017-09-23T23:40:42.466Z,27.63
2017-09-23T23:43:09.943Z,19.40
2017-09-23T23:45:37.434Z,29.67
2017-09-23T23:48:05.184Z,25.53
2017-09-23T23:50:32.648Z,22.50
2017-09-23T23:53:00.117Z,21.17
2017-09-23T23:55:27.588Z,29.80
2017-09-23T23:57:55.049Z,24.77
